createdAt,value
2023-03-05T00:05:46.982Z,2.00
2023-03-05T00:09:16.652Z,1.40
2023-03-05T00:12:32.726Z,1.00
2023-03-05T00:15:50.469Z,1.70
2023-03-05T00:19:05.284Z,4.10
2023-03-05T00:22:22.501Z,4.80
2023-03-05T00:25:53.471Z,4.10
2023-03-05T00:29:03.004Z,3.10
2023-03-05T00:32:23.240Z,1.00
2023-03-05T00:35:49.477Z,1.20
2023-03-05T00:39:10.018Z,0.60
2023-03-05T00:47:38.270Z,2.40
2023-03-05T00:51:15.646Z,2.50
2023-03-05T00:54:51.523Z,2.70
2023-03-05T00:58:34.147Z,3.10
2023-03-05T01:02:07.754Z,3.00
2023-03-05T01:05:32.597Z,4.50
2023-03-05T01:08:55.043Z,4.60
2023-03-05T01:12:33.651Z,3.90
2023-03-05T01:16:01.446Z,3.30
2023-03-05T01:19:31.471Z,2.60
2023-03-05T01:23:06.378Z,3.50
2023-03-05T01:26:20.504Z,5.30
2023-03-05T01:29:59.532Z,7.40
2023-03-05T01:33:29.885Z,3.30
2023-03-05T01:37:08.131Z,6.20
2023-03-05T01:41:04.924Z,3.10
2023-03-05T01:44:37.428Z,6.20
2023-03-05T01:48:16.420Z,2.60
2023-03-05T01:51:48.518Z,3.20
2023-03-05T01:55:25.687Z,2.40
2023-03-05T01:58:49.148Z,4.90
2023-03-05T02:05:56.314Z,3.10
2023-03-05T02:09:16.048Z,6.20
2023-03-05T02:12:57.684Z,6.00
2023-03-05T02:16:23.640Z,4.50
2023-03-05T02:23:15.727Z,4.10
2023-03-05T02:26:45.459Z,3.00
2023-03-05T02:30:21.498Z,1.60
2023-03-05T02:33:38.508Z,3.70
2023-03-05T02:37:15.873Z,3.30
2023-03-05T02:41:06.931Z,3.00
2023-03-05T02:44:26.332Z,2.90
2023-03-05T02:47:38.145Z,2.40
2023-03-05T02:51:21.306Z,1.60
2023-03-05T02:54:44.881Z,2.90
2023-03-05T02:58:18.516Z,6.10
2023-03-05T03:01:47.479Z,2.60
2023-03-05T03:05:26.670Z,3.10
2023-03-05T03:08:40.922Z,7.70
2023-03-05T03:12:10.142Z,9.50
2023-03-05T03:15:26.088Z,2.10
2023-03-05T03:18:42.926Z,5.00
2023-03-05T03:22:02.776Z,5.10
2023-03-05T03:25:33.785Z,2.40
2023-03-05T03:29:10.020Z,3.70
2023-03-05T03:32:27.425Z,3.30
2023-03-05T03:36:06.665Z,2.80
2023-03-05T03:39:38.918Z,10.00
2023-03-05T03:43:03.624Z,3.20
2023-03-05T03:46:13.416Z,2.20
2023-03-05T03:49:39.006Z,2.00
2023-03-05T03:53:01.312Z,6.80
2023-03-05T03:56:29.316Z,6.00
2023-03-05T03:59:50.556Z,2.10
2023-03-05T04:05:52.158Z,4.00
2023-03-05T04:10:20.243Z,3.10
2023-03-05T04:13:38.343Z,3.90
2023-03-05T04:17:10.358Z,3.70
2023-03-05T04:20:43.646Z,1.90
2023-03-05T04:27:14.883Z,4.20
2023-03-05T04:30:51.667Z,1.80
2023-03-05T04:34:30.961Z,2.70
2023-03-05T04:41:26.829Z,4.00
2023-03-05T04:44:36.961Z,1.80
2023-03-05T04:47:54.440Z,4.90
2023-03-05T04:51:18.863Z,3.90
2023-03-05T04:55:04.356Z,10.90
2023-03-05T04:58:38.056Z,7.50
2023-03-05T05:03:11.249Z,2.30
2023-03-05T05:10:10.490Z,5.60
2023-03-05T05:13:35.167Z,2.50
2023-03-05T05:20:30.220Z,1.90
2023-03-05T05:23:44.381Z,3.70
2023-03-05T05:27:19.353Z,1.80
2023-03-05T05:30:49.301Z,1.40
2023-03-05T05:37:54.394Z,1.00
2023-03-05T05:41:12.306Z,4.40
2023-03-05T05:45:09.496Z,3.80
2023-03-05T05:48:48.288Z,2.50
2023-03-05T05:52:27.551Z,2.20
2023-03-05T05:55:58.200Z,1.30
2023-03-05T06:00:26.810Z,3.00
2023-03-05T06:06:09.905Z,2.70
2023-03-05T06:09:26.688Z,3.50
2023-03-05T06:13:02.883Z,4.00
2023-03-05T06:16:21.074Z,8.30
2023-03-05T06:19:46.094Z,6.60
2023-03-05T06:23:07.217Z,6.30
2023-03-05T06:26:30.321Z,3.40
2023-03-05T06:30:13.900Z,6.10
2023-03-05T06:34:08.051Z,5.40
2023-03-05T06:41:55.219Z,3.00
2023-03-05T06:49:43.201Z,5.70
2023-03-05T06:53:20.159Z,6.80
2023-03-05T07:00:38.450Z,3.00
2023-03-05T07:04:12.404Z,4.70
2023-03-05T07:07:42.215Z,9.60
2023-03-05T07:11:26.523Z,7.40
2023-03-05T07:15:13.592Z,2.90
2023-03-05T07:18:44.560Z,4.60
2023-03-05T07:22:09.542Z,5.30
2023-03-05T07:25:42.904Z,3.70
2023-03-05T07:29:09.896Z,4.10
2023-03-05T07:33:30.803Z,5.10
2023-03-05T07:37:25.259Z,3.00
2023-03-05T08:01:23.782Z,8.70
2023-03-05T08:09:34.433Z,6.10
2023-03-05T08:12:59.901Z,5.10
2023-03-05T08:16:28.402Z,4.30
2023-03-05T08:20:22.473Z,4.60
2023-03-05T08:24:03.747Z,4.00
2023-03-05T08:27:44.014Z,4.00
2023-03-05T08:34:45.917Z,6.10
2023-03-05T08:37:53.870Z,1.90
2023-03-05T08:41:01.994Z,10.60
2023-03-05T08:44:10.274Z,5.20
2023-03-05T08:47:13.744Z,3.30
2023-03-05T08:50:18.211Z,4.00
2023-03-05T08:53:26.113Z,2.80
2023-03-05T09:08:46.033Z,3.30
2023-03-05T09:12:19.582Z,2.30
2023-03-05T09:16:15.440Z,3.70
2023-03-05T09:19:36.301Z,1.60
2023-03-05T09:23:00.021Z,5.20
2023-03-05T09:26:27.511Z,5.70
2023-03-05T09:30:14.634Z,3.60
2023-03-05T09:33:47.344Z,2.40
2023-03-05T09:41:53.668Z,3.40
2023-03-05T09:49:45.994Z,2.90
2023-03-05T09:52:57.285Z,1.90
2023-03-05T09:56:11.668Z,3.30
2023-03-05T09:59:31.441Z,3.00
2023-03-05T10:05:29.547Z,3.80
2023-03-05T10:20:42.374Z,4.00
2023-03-05T10:24:04.476Z,3.00
2023-03-05T10:27:27.683Z,2.90
2023-03-05T10:31:01.489Z,4.40
2023-03-05T10:34:25.033Z,4.30
2023-03-05T10:38:05.317Z,2.60
2023-03-05T10:41:55.683Z,4.80
2023-03-05T10:45:02.057Z,3.30
2023-03-05T10:48:59.186Z,3.60
2023-03-05T10:52:21.583Z,3.10
2023-03-05T10:55:30.591Z,1.90
2023-03-05T10:58:33.586Z,3.40
2023-03-05T11:01:39.047Z,4.70
2023-03-05T11:04:42.076Z,3.90
2023-03-05T11:07:56.025Z,5.50
2023-03-05T11:11:21.236Z,3.20
2023-03-05T11:14:33.045Z,1.60
2023-03-05T11:18:18.999Z,3.00
2023-03-05T11:21:28.512Z,3.60
2023-03-05T11:24:43.676Z,2.30
2023-03-05T11:28:04.141Z,2.30
2023-03-05T11:31:40.613Z,3.50
2023-03-05T11:34:49.780Z,3.70
2023-03-05T11:38:06.929Z,4.10
2023-03-05T11:41:14.181Z,8.30
2023-03-05T11:45:10.735Z,5.70
2023-03-05T11:48:43.608Z,5.30
2023-03-05T11:52:23.288Z,4.80
2023-03-05T12:07:39.736Z,3.90
2023-03-05T12:10:43.284Z,3.80
2023-03-05T12:13:56.376Z,2.60
2023-03-05T12:17:30.261Z,3.20
2023-03-05T12:21:11.760Z,6.20
2023-03-05T12:24:28.729Z,3.70
2023-03-05T12:27:35.085Z,4.50
2023-03-05T12:30:43.630Z,4.10
2023-03-05T12:33:48.500Z,3.80
2023-03-05T12:37:09.719Z,4.90
2023-03-05T12:40:21.028Z,4.60
2023-03-05T12:43:33.814Z,7.80
2023-03-05T12:46:44.964Z,5.60
2023-03-05T12:49:51.960Z,3.90
2023-03-05T12:53:06.697Z,2.80
2023-03-05T12:56:26.194Z,4.90
2023-03-05T13:00:13.769Z,3.70
2023-03-05T13:06:33.736Z,6.00
2023-03-05T13:09:37.288Z,11.10
2023-03-05T13:12:49.189Z,3.50
2023-03-05T13:15:54.542Z,2.30
2023-03-05T13:19:01.566Z,4.60
2023-03-05T13:22:12.294Z,3.90
2023-03-05T13:25:22.195Z,5.70
2023-03-05T13:28:27.539Z,4.20
2023-03-05T13:31:32.974Z,6.20
2023-03-05T13:34:47.075Z,8.10
2023-03-05T13:37:53.014Z,12.20
2023-03-05T13:41:08.519Z,5.40
2023-03-05T13:44:21.912Z,7.00
2023-03-05T13:47:29.410Z,6.00
2023-03-05T13:50:43.401Z,8.40
2023-03-05T13:53:46.438Z,7.20
2023-03-05T13:56:58.433Z,5.40
2023-03-05T14:00:04.508Z,5.20
2023-03-05T14:05:21.126Z,3.60
2023-03-05T14:08:29.384Z,7.40
2023-03-05T14:11:34.050Z,6.50
2023-03-05T14:14:41.922Z,4.90
2023-03-05T14:17:46.440Z,4.30
2023-03-05T14:21:11.066Z,7.60
2023-03-05T14:24:24.122Z,5.00
2023-03-05T14:27:31.256Z,4.30
2023-03-05T14:30:40.652Z,5.70
2023-03-05T14:33:44.779Z,2.60
2023-03-05T14:36:55.659Z,3.20
2023-03-05T14:40:19.619Z,3.30
2023-03-05T14:43:25.018Z,3.00
2023-03-05T14:46:29.071Z,5.70
2023-03-05T14:49:33.974Z,9.00
2023-03-05T14:52:37.505Z,7.50
2023-03-05T14:55:48.730Z,5.40
2023-03-05T14:58:52.236Z,6.40
2023-03-05T15:01:55.690Z,5.80
2023-03-05T15:05:03.757Z,11.10
2023-03-05T15:08:13.856Z,4.40
2023-03-05T15:11:19.584Z,6.70
2023-03-05T15:14:24.829Z,10.00
2023-03-05T15:17:43.813Z,8.40
2023-03-05T15:20:49.018Z,6.30
2023-03-05T15:23:55.485Z,6.70
2023-03-05T15:26:59.004Z,7.80
2023-03-05T15:30:02.535Z,7.20
2023-03-05T15:33:08.605Z,6.80
2023-03-05T15:36:11.052Z,5.70
2023-03-05T15:39:15.705Z,7.70
2023-03-05T15:42:18.238Z,7.70
2023-03-05T15:45:21.790Z,7.70
2023-03-05T15:48:24.695Z,10.40
2023-03-05T15:51:29.759Z,7.40
2023-03-05T15:54:36.272Z,6.90
2023-03-05T15:57:45.939Z,7.60
2023-03-05T16:00:51.906Z,11.70
2023-03-05T16:03:57.144Z,4.00
2023-03-05T16:07:08.121Z,4.70
2023-03-05T16:10:17.159Z,7.60
2023-03-05T16:13:21.752Z,9.00
2023-03-05T16:16:29.015Z,9.90
2023-03-05T16:19:35.913Z,7.30
2023-03-05T16:23:29.463Z,7.00
2023-03-05T16:26:41.178Z,9.70
2023-03-05T16:29:43.557Z,6.10
2023-03-05T16:32:48.788Z,13.50
2023-03-05T16:36:28.357Z,8.70
2023-03-05T16:42:38.827Z,5.20
2023-03-05T16:45:44.871Z,6.30
2023-03-05T16:48:49.480Z,6.10
2023-03-05T16:51:56.707Z,7.60
2023-03-05T16:55:01.651Z,7.80
2023-03-05T16:58:16.288Z,8.30
2023-03-05T17:01:26.040Z,9.30
2023-03-05T17:04:37.831Z,8.70
2023-03-05T17:07:44.314Z,8.90
2023-03-05T17:10:49.640Z,10.70
2023-03-05T17:14:00.003Z,9.50
2023-03-05T17:17:05.760Z,29.50
2023-03-05T17:20:14.425Z,13.80
2023-03-05T17:23:25.203Z,11.70
2023-03-05T17:26:35.427Z,12.80
2023-03-05T17:29:45.448Z,14.80
2023-03-05T17:32:54.112Z,10.90
2023-03-05T17:35:57.162Z,9.80
2023-03-05T17:39:04.206Z,15.20
2023-03-05T17:42:11.735Z,11.70
2023-03-05T17:45:16.904Z,14.40
2023-03-05T17:48:21.575Z,15.10
2023-03-05T17:51:33.229Z,19.40
2023-03-05T17:54:39.417Z,20.10
2023-03-05T17:57:44.791Z,22.40
2023-03-05T18:00:51.403Z,26.40
2023-03-05T18:05:29.718Z,27.90
2023-03-05T18:08:39.155Z,34.60
2023-03-05T18:11:43.849Z,33.60
2023-03-05T18:14:58.342Z,28.20
2023-03-05T18:18:04.727Z,24.20
2023-03-05T18:21:13.179Z,22.50
2023-03-05T18:24:25.785Z,22.50
2023-03-05T18:27:38.963Z,22.20
2023-03-05T18:30:43.895Z,17.80
2023-03-05T18:33:53.816Z,14.90
2023-03-05T18:37:03.475Z,15.70
2023-03-05T18:40:19.246Z,18.80
2023-03-05T18:43:30.359Z,18.60
2023-03-05T18:46:50.309Z,19.30
2023-03-05T18:49:58.099Z,19.60
2023-03-05T18:53:06.384Z,21.40
2023-03-05T18:56:18.185Z,19.40
2023-03-05T18:59:25.780Z,18.20
2023-03-05T19:07:22.653Z,17.40
2023-03-05T19:16:27.112Z,9.50
2023-03-05T19:47:08.535Z,8.10
2023-03-05T19:50:17.084Z,8.20
2023-03-05T19:53:33.479Z,8.30
2023-03-05T20:05:26.469Z,14.80
2023-03-05T20:13:49.602Z,16.70
2023-03-05T20:16:59.383Z,14.30
2023-03-05T20:25:30.700Z,8.30
2023-03-05T20:40:09.735Z,11.60
2023-03-05T21:09:22.202Z,15.90
2023-03-05T21:32:21.396Z,12.10
2023-03-05T21:36:48.986Z,18.20
2023-03-05T21:45:18.297Z,22.80
2023-03-05T22:06:30.181Z,20.70
2023-03-05T22:11:10.386Z,24.20
2023-03-05T22:37:58.296Z,17.60
2023-03-05T22:41:28.734Z,18.30
2023-03-05T22:45:46.313Z,13.90
2023-03-05T22:49:25.598Z,15.30
2023-03-05T22:53:04.376Z,15.40
2023-03-05T22:56:51.434Z,16.20
2023-03-05T23:00:53.714Z,16.80
2023-03-05T23:09:33.609Z,14.10
2023-03-05T23:13:27.585Z,14.20
2023-03-05T23:17:27.131Z,14.80
2023-03-05T23:21:25.712Z,18.40
2023-03-05T23:25:20.853Z,14.50
2023-03-05T23:29:57.826Z,17.50
2023-03-05T23:39:02.602Z,13.90
2023-03-05T23:43:01.580Z,12.70
2023-03-05T23:47:28.573Z,15.80
2023-03-05T23:51:01.524Z,15.10
2023-03-05T23:54:18.784Z,18.00
2023-03-05T23:58:23.709Z,18.60
